createdAt,value
2023-02-27T00:00:18.858Z,-1.80
2023-02-27T00:02:49.304Z,-1.80
2023-02-27T00:05:17.265Z,-1.80
2023-02-27T00:07:45.192Z,-1.80
2023-02-27T00:10:13.702Z,-1.90
2023-02-27T00:12:41.691Z,-1.80
2023-02-27T00:15:09.923Z,-1.80
2023-02-27T00:17:37.804Z,-1.80
2023-02-27T00:20:11.033Z,-1.80
2023-02-27T00:22:38.862Z,-1.80
2023-02-27T00:25:07.396Z,-1.80
2023-02-27T00:27:35.557Z,-1.60
2023-02-27T00:30:03.605Z,-1.80
2023-02-27T00:32:31.440Z,-1.80
2023-02-27T00:34:59.227Z,-1.60
2023-02-27T00:37:28.373Z,-1.60
2023-02-27T00:39:56.162Z,-1.70
2023-02-27T00:42:23.940Z,-1.70
2023-02-27T00:44:51.671Z,-1.70
2023-02-27T00:47:19.474Z,-1.60
2023-02-27T00:49:47.283Z,-1.60
2023-02-27T00:52:15.046Z,-1.60
2023-02-27T00:54:44.212Z,-1.60
2023-02-27T00:57:11.979Z,-1.60
2023-02-27T00:59:39.760Z,-1.50
2023-02-27T01:02:07.524Z,-1.60
2023-02-27T01:04:35.337Z,-1.60
2023-02-27T01:07:03.130Z,-1.50
2023-02-27T01:09:30.904Z,-1.60
2023-02-27T01:12:00.032Z,-1.60
2023-02-27T01:14:27.975Z,-1.80
2023-02-27T01:16:55.743Z,-1.80
2023-02-27T01:19:23.721Z,-1.70
2023-02-27T01:21:51.444Z,-1.80
2023-02-27T01:24:19.962Z,-1.70
2023-02-27T01:26:47.899Z,-1.60
2023-02-27T01:29:17.122Z,-1.70
2023-02-27T01:31:44.976Z,-1.60
2023-02-27T01:34:12.895Z,-1.70
2023-02-27T01:36:40.630Z,-1.60
2023-02-27T01:39:08.531Z,-1.70
2023-02-27T01:41:36.295Z,-1.80
2023-02-27T01:44:05.538Z,-1.90
2023-02-27T01:46:34.760Z,-1.80
2023-02-27T01:49:05.117Z,-1.80
2023-02-27T01:51:34.045Z,-1.70
2023-02-27T01:54:01.825Z,-1.80
2023-02-27T01:56:30.997Z,-1.70
2023-02-27T01:59:00.043Z,-1.80
2023-02-27T02:01:28.197Z,-1.70
2023-02-27T02:04:00.954Z,-1.90
2023-02-27T02:06:29.823Z,-1.20
2023-02-27T02:08:57.608Z,-1.10
2023-02-27T02:11:25.725Z,-1.40
2023-02-27T02:13:59.433Z,-1.50
2023-02-27T02:16:42.768Z,-1.60
2023-02-27T02:19:31.065Z,-1.60
2023-02-27T02:22:19.948Z,-1.60
2023-02-27T02:25:27.937Z,-1.70
2023-02-27T02:28:04.991Z,-1.80
2023-02-27T02:31:02.717Z,-1.90
2023-02-27T02:33:53.732Z,-1.80
2023-02-27T02:36:21.983Z,-1.80
2023-02-27T02:39:29.717Z,-1.70
2023-02-27T02:42:04.043Z,-1.60
2023-02-27T02:44:37.760Z,-1.70
2023-02-27T02:47:07.051Z,-1.80
2023-02-27T02:49:37.439Z,-1.70
2023-02-27T02:52:07.709Z,-1.70
2023-02-27T02:54:39.465Z,-1.70
2023-02-27T02:57:11.341Z,-1.80
2023-02-27T02:59:41.003Z,-1.90
2023-02-27T03:02:10.378Z,-1.80
2023-02-27T03:04:40.794Z,-1.80
2023-02-27T03:07:12.710Z,-1.80
2023-02-27T03:09:42.244Z,-1.80
2023-02-27T03:12:13.303Z,-1.80
2023-02-27T03:14:42.451Z,-1.90
2023-02-27T03:17:11.998Z,-1.90
2023-02-27T03:19:41.530Z,-1.90
2023-02-27T03:22:10.704Z,-1.80
2023-02-27T03:24:40.969Z,-1.70
2023-02-27T03:27:09.460Z,-1.70
2023-02-27T03:29:41.260Z,-1.90
2023-02-27T03:32:12.309Z,-1.80
2023-02-27T03:34:40.820Z,-1.70
2023-02-27T03:37:14.242Z,-1.70
2023-02-27T03:39:45.381Z,-1.70
2023-02-27T03:42:18.496Z,-1.70
2023-02-27T03:44:54.932Z,-1.80
2023-02-27T03:47:22.870Z,-1.80
2023-02-27T03:49:52.177Z,-1.90
2023-02-27T03:52:20.588Z,-1.80
2023-02-27T03:54:50.667Z,-1.70
2023-02-27T03:57:18.702Z,-1.80
2023-02-27T03:59:46.769Z,-1.70
2023-02-27T04:02:16.248Z,-1.70
2023-02-27T04:04:44.391Z,-1.80
2023-02-27T04:07:24.658Z,-1.80
2023-02-27T04:10:19.647Z,-1.70
2023-02-27T04:13:14.872Z,-1.80
2023-02-27T04:15:50.635Z,-1.80
2023-02-27T04:18:26.325Z,-1.80
2023-02-27T04:20:55.577Z,-1.80
2023-02-27T04:23:25.281Z,-1.80
2023-02-27T04:25:59.129Z,-1.90
2023-02-27T04:28:28.883Z,-1.90
2023-02-27T04:31:01.031Z,-1.80
2023-02-27T04:33:38.021Z,-1.80
2023-02-27T04:36:08.212Z,-1.80
2023-02-27T04:38:38.226Z,-1.70
2023-02-27T04:41:08.313Z,-1.80
2023-02-27T04:43:36.471Z,-1.90
2023-02-27T04:46:04.608Z,-1.80
2023-02-27T04:48:35.662Z,-1.80
2023-02-27T04:51:05.978Z,-1.80
2023-02-27T04:53:38.499Z,-1.80
2023-02-27T04:56:09.189Z,-1.80
2023-02-27T04:58:38.597Z,-1.80
2023-02-27T05:01:13.258Z,-1.90
2023-02-27T05:03:43.761Z,-1.80
2023-02-27T05:06:11.764Z,-1.80
2023-02-27T05:08:42.676Z,-1.80
2023-02-27T05:11:12.354Z,-1.90
2023-02-27T05:13:42.051Z,-1.80
2023-02-27T05:16:12.643Z,-1.90
2023-02-27T05:18:42.529Z,-1.80
2023-02-27T05:21:16.024Z,-1.80
2023-02-27T05:23:46.002Z,-1.70
2023-02-27T05:26:17.145Z,-1.70
2023-02-27T05:28:50.333Z,-1.70
2023-02-27T05:31:22.046Z,-1.80
2023-02-27T05:33:55.342Z,-1.70
2023-02-27T05:36:25.859Z,-1.80
2023-02-27T05:38:55.454Z,-1.80
2023-02-27T05:41:29.668Z,-1.80
2023-02-27T05:43:58.844Z,-1.80
2023-02-27T05:46:28.545Z,-1.80
2023-02-27T05:48:59.191Z,-1.80
2023-02-27T05:51:28.602Z,-2.00
2023-02-27T05:53:59.259Z,-1.90
2023-02-27T05:56:27.967Z,-1.80
2023-02-27T05:58:57.426Z,-1.80
2023-02-27T06:01:25.349Z,-1.90
2023-02-27T06:03:53.899Z,-2.00
2023-02-27T06:06:23.364Z,-1.90
2023-02-27T06:08:51.465Z,-1.80
2023-02-27T06:11:19.460Z,-1.80
2023-02-27T06:13:47.362Z,-1.80
2023-02-27T06:16:15.779Z,-1.90
2023-02-27T06:18:43.745Z,-1.90
2023-02-27T06:21:15.048Z,-1.90
2023-02-27T06:23:44.404Z,-1.80
2023-02-27T06:26:14.288Z,-1.90
2023-02-27T06:28:42.858Z,-1.80
2023-02-27T06:31:10.840Z,-1.90
2023-02-27T06:33:38.960Z,-1.80
2023-02-27T06:36:07.443Z,-1.80
2023-02-27T06:38:35.575Z,-1.80
2023-02-27T06:41:04.978Z,-1.90
2023-02-27T06:43:34.891Z,-1.80
2023-02-27T06:46:03.055Z,-1.80
2023-02-27T06:48:30.966Z,-1.80
2023-02-27T06:50:58.987Z,-1.80
2023-02-27T06:53:27.205Z,-1.80
2023-02-27T06:55:55.087Z,-1.80
2023-02-27T06:58:25.380Z,-1.80
2023-02-27T07:00:53.263Z,-1.80
2023-02-27T07:03:21.256Z,-1.70
2023-02-27T07:05:49.166Z,-1.70
2023-02-27T07:08:17.625Z,-1.60
2023-02-27T07:10:47.133Z,-1.60
2023-02-27T07:13:17.850Z,-1.60
2023-02-27T07:15:48.369Z,-1.70
2023-02-27T07:18:16.369Z,-1.80
2023-02-27T07:20:44.295Z,-1.70
2023-02-27T07:23:12.508Z,-1.60
2023-02-27T07:25:40.380Z,-1.50
2023-02-27T07:28:08.327Z,-1.40
2023-02-27T07:30:36.405Z,-1.50
2023-02-27T07:33:05.974Z,-1.70
2023-02-27T07:35:34.097Z,-1.60
2023-02-27T07:38:02.100Z,-1.70
2023-02-27T07:40:30.169Z,-1.60
2023-02-27T07:42:58.070Z,-1.50
2023-02-27T07:45:26.037Z,-1.50
2023-02-27T07:47:53.903Z,-1.40
2023-02-27T07:50:23.313Z,-1.40
2023-02-27T07:52:52.465Z,-1.40
2023-02-27T07:55:20.523Z,-1.50
2023-02-27T07:57:48.402Z,-1.40
2023-02-27T08:00:17.299Z,-1.40
2023-02-27T08:02:45.383Z,-1.40
2023-02-27T08:05:13.433Z,-1.40
2023-02-27T08:07:42.843Z,-1.50
2023-02-27T08:10:12.341Z,-1.50
2023-02-27T08:12:40.672Z,-1.40
2023-02-27T08:15:10.090Z,-1.30
2023-02-27T08:17:38.018Z,-1.30
2023-02-27T08:20:09.399Z,-1.30
2023-02-27T08:22:37.361Z,-1.20
2023-02-27T08:25:11.041Z,-1.20
2023-02-27T08:27:38.960Z,-0.80
2023-02-27T08:30:08.213Z,-0.90
2023-02-27T08:32:36.165Z,-1.00
2023-02-27T08:35:04.195Z,-1.00
2023-02-27T08:37:32.077Z,-1.10
2023-02-27T08:40:00.338Z,-1.10
2023-02-27T08:42:29.610Z,-1.00
2023-02-27T08:44:57.556Z,-1.00
2023-02-27T08:47:25.455Z,-1.00
2023-02-27T08:49:53.572Z,-1.00
2023-02-27T08:52:23.452Z,-0.90
2023-02-27T08:54:52.721Z,-1.00
2023-02-27T08:57:20.571Z,-0.90
2023-02-27T08:59:50.026Z,-0.80
2023-02-27T09:02:18.473Z,-0.80
2023-02-27T09:04:46.566Z,-0.90
2023-02-27T09:07:14.618Z,-0.90
2023-02-27T09:09:42.681Z,-0.90
2023-02-27T09:12:10.647Z,-0.80
2023-02-27T09:14:40.119Z,-0.80
2023-02-27T09:17:09.489Z,-0.70
2023-02-27T09:19:37.393Z,-0.70
2023-02-27T09:22:05.310Z,-0.90
2023-02-27T09:24:33.260Z,-1.00
2023-02-27T09:27:01.851Z,-0.80
2023-02-27T09:29:29.988Z,-0.60
2023-02-27T09:31:58.030Z,-0.60
2023-02-27T09:34:27.388Z,-0.70
2023-02-27T09:36:55.467Z,-0.80
2023-02-27T09:39:23.487Z,-0.70
2023-02-27T09:41:58.282Z,-0.60
2023-02-27T09:44:45.363Z,-0.70
2023-02-27T09:47:19.395Z,-0.80
2023-02-27T09:50:00.958Z,-0.90
2023-02-27T09:52:29.075Z,-0.80
2023-02-27T09:54:57.105Z,-0.70
2023-02-27T09:57:38.920Z,-0.60
2023-02-27T10:00:09.585Z,-0.70
2023-02-27T10:02:45.307Z,-0.90
2023-02-27T10:05:20.273Z,-0.80
2023-02-27T10:07:51.538Z,-0.70
2023-02-27T10:10:22.479Z,-0.80
2023-02-27T10:13:00.284Z,-0.90
2023-02-27T10:15:29.931Z,-0.90
2023-02-27T10:17:59.669Z,-0.70
2023-02-27T10:20:30.878Z,-0.70
2023-02-27T10:22:59.475Z,-0.60
2023-02-27T10:25:32.152Z,-0.60
2023-02-27T10:28:03.637Z,-0.70
2023-02-27T10:30:34.696Z,-0.50
2023-02-27T10:33:07.624Z,-0.50
2023-02-27T10:35:38.569Z,-0.40
2023-02-27T10:38:07.836Z,-0.30
2023-02-27T10:40:36.617Z,-0.10
2023-02-27T10:43:06.438Z,-0.30
2023-02-27T10:45:34.438Z,-0.20
2023-02-27T10:48:02.955Z,-0.20
2023-02-27T10:50:31.977Z,-0.10
2023-02-27T10:53:02.165Z,-0.30
2023-02-27T10:55:30.981Z,-0.30
2023-02-27T10:57:59.242Z,-0.20
2023-02-27T11:00:33.575Z,-0.10
2023-02-27T11:03:01.657Z,-0.20
2023-02-27T11:05:30.596Z,0.00
2023-02-27T11:07:58.968Z,-0.10
2023-02-27T11:10:29.449Z,0.00
2023-02-27T11:13:02.306Z,0.10
2023-02-27T11:15:31.535Z,0.30
2023-02-27T11:18:22.022Z,0.00
2023-02-27T11:20:51.624Z,0.20
2023-02-27T11:23:20.953Z,0.20
2023-02-27T11:25:50.449Z,0.10
2023-02-27T11:28:23.478Z,0.20
2023-02-27T11:31:01.873Z,0.00
2023-02-27T11:33:30.625Z,0.00
2023-02-27T11:35:59.465Z,0.10
2023-02-27T11:38:28.890Z,0.20
2023-02-27T11:40:59.059Z,0.10
2023-02-27T11:43:27.967Z,0.10
2023-02-27T11:46:13.219Z,0.20
2023-02-27T11:48:48.489Z,0.20
2023-02-27T11:51:29.294Z,0.20
2023-02-27T11:54:22.098Z,0.20
2023-02-27T11:56:57.455Z,0.30
2023-02-27T11:59:28.864Z,0.20
2023-02-27T12:02:01.308Z,0.20
2023-02-27T12:04:31.129Z,0.10
2023-02-27T12:07:00.662Z,0.20
2023-02-27T12:09:40.728Z,0.30
2023-02-27T12:12:15.421Z,0.20
2023-02-27T12:14:46.672Z,0.40
2023-02-27T12:17:19.852Z,0.00
2023-02-27T12:19:53.762Z,0.30
2023-02-27T12:22:23.733Z,0.30
2023-02-27T12:24:53.600Z,0.30
2023-02-27T12:27:25.006Z,0.60
2023-02-27T12:29:54.734Z,0.40
2023-02-27T12:32:24.808Z,0.50
2023-02-27T12:34:53.883Z,0.60
2023-02-27T12:37:23.779Z,0.50
2023-02-27T12:39:51.734Z,0.40
2023-02-27T12:42:56.873Z,0.50
2023-02-27T12:45:42.996Z,0.40
2023-02-27T12:48:18.747Z,0.00
2023-02-27T12:50:51.250Z,0.10
2023-02-27T12:53:28.530Z,0.10
2023-02-27T12:55:58.642Z,0.20
2023-02-27T12:58:34.620Z,0.00
2023-02-27T13:01:03.465Z,-0.10
2023-02-27T13:03:35.389Z,0.00
2023-02-27T13:06:05.901Z,-0.10
2023-02-27T13:08:43.252Z,0.00
2023-02-27T13:11:18.547Z,-0.20
2023-02-27T13:13:49.524Z,-0.20
2023-02-27T13:16:18.772Z,-0.40
2023-02-27T13:18:48.390Z,-0.40
2023-02-27T13:21:19.925Z,-0.20
2023-02-27T13:23:54.302Z,-0.30
2023-02-27T13:26:23.898Z,-0.20
2023-02-27T13:28:53.450Z,-0.10
2023-02-27T13:31:27.654Z,-0.10
2023-02-27T13:33:59.633Z,0.00
2023-02-27T13:36:28.554Z,0.00
2023-02-27T13:38:56.613Z,-0.10
2023-02-27T13:41:48.390Z,0.10
2023-02-27T13:44:50.759Z,0.00
2023-02-27T13:47:51.841Z,-0.10
2023-02-27T13:50:53.532Z,-0.10
2023-02-27T13:53:22.514Z,-0.20
2023-02-27T13:55:50.450Z,-0.20
2023-02-27T13:58:20.105Z,-0.10
2023-02-27T14:00:57.965Z,-0.20
2023-02-27T14:03:27.666Z,-0.10
2023-02-27T14:05:57.359Z,-0.10
2023-02-27T14:08:25.847Z,-0.30
2023-02-27T14:10:57.280Z,-0.10
2023-02-27T14:14:13.595Z,-0.10
2023-02-27T14:16:59.413Z,-0.40
2023-02-27T14:19:48.214Z,-0.20
2023-02-27T14:22:38.990Z,-0.30
2023-02-27T14:25:14.954Z,-0.10
2023-02-27T14:27:49.221Z,-0.10
2023-02-27T14:30:41.784Z,0.20
2023-02-27T14:33:37.508Z,-0.20
2023-02-27T14:36:09.131Z,-0.30
2023-02-27T14:38:38.262Z,-0.20
2023-02-27T14:41:12.114Z,-0.40
2023-02-27T14:43:40.860Z,-0.20
2023-02-27T14:46:13.341Z,-0.20
2023-02-27T14:48:42.550Z,0.00
2023-02-27T14:51:10.368Z,0.00
2023-02-27T14:53:38.168Z,0.00
2023-02-27T14:56:06.403Z,0.10
2023-02-27T14:58:34.258Z,0.00
2023-02-27T15:01:04.738Z,-0.10
2023-02-27T15:03:38.887Z,-0.10
2023-02-27T15:06:15.326Z,-0.10
2023-02-27T15:08:43.697Z,-0.30
2023-02-27T15:11:14.634Z,-0.10
2023-02-27T15:13:42.637Z,0.00
2023-02-27T15:16:31.744Z,0.10
2023-02-27T15:19:01.375Z,0.10
2023-02-27T15:21:31.810Z,0.20
2023-02-27T15:24:00.234Z,0.00
2023-02-27T15:26:30.074Z,0.00
2023-02-27T15:28:59.814Z,-0.10
2023-02-27T15:31:31.206Z,-0.20
2023-02-27T15:33:59.746Z,-0.20
2023-02-27T15:36:28.780Z,-0.20
2023-02-27T15:39:09.425Z,-0.60
2023-02-27T15:41:37.361Z,-0.50
2023-02-27T15:44:05.383Z,-0.60
2023-02-27T15:46:33.280Z,-0.60
2023-02-27T15:49:01.157Z,-0.70
2023-02-27T15:51:29.348Z,-0.60
2023-02-27T15:53:59.701Z,-0.60
2023-02-27T15:56:32.303Z,-0.70
2023-02-27T15:59:01.158Z,-0.90
2023-02-27T16:01:30.713Z,-0.70
2023-02-27T16:04:00.853Z,-0.60
2023-02-27T16:06:30.507Z,-0.70
2023-02-27T16:09:00.598Z,-0.70
2023-02-27T16:11:30.975Z,-0.90
2023-02-27T16:13:58.802Z,-0.80
2023-02-27T16:16:32.620Z,-0.90
2023-02-27T16:19:02.620Z,-1.00
2023-02-27T16:21:31.510Z,-1.00
2023-02-27T16:24:20.686Z,-1.00
2023-02-27T16:26:51.311Z,-1.00
2023-02-27T16:29:22.535Z,-1.00
2023-02-27T16:31:52.109Z,-1.00
2023-02-27T16:34:28.058Z,-1.00
2023-02-27T16:37:02.402Z,-1.00
2023-02-27T16:39:30.277Z,-0.90
2023-02-27T16:42:00.381Z,-1.30
2023-02-27T16:44:29.380Z,-1.20
2023-02-27T16:46:58.650Z,-1.30
2023-02-27T16:49:27.472Z,-1.30
2023-02-27T16:51:55.341Z,-1.30
2023-02-27T16:54:23.336Z,-1.30
2023-02-27T16:56:51.888Z,-1.40
2023-02-27T16:59:31.523Z,-1.40
2023-02-27T17:01:59.651Z,-1.50
2023-02-27T17:04:28.184Z,-1.50
2023-02-27T17:06:56.569Z,-1.50
2023-02-27T17:09:27.218Z,-1.50
2023-02-27T17:11:55.141Z,-1.70
2023-02-27T17:14:23.099Z,-1.70
2023-02-27T17:16:52.439Z,-1.60
2023-02-27T17:19:21.404Z,-1.40
2023-02-27T17:21:49.423Z,-1.50
2023-02-27T17:24:17.322Z,-1.60
2023-02-27T17:26:45.146Z,-1.50
2023-02-27T17:29:14.911Z,-1.40
2023-02-27T17:31:44.652Z,-1.40
2023-02-27T17:34:13.914Z,-1.50
2023-02-27T17:36:41.758Z,-1.50
2023-02-27T17:39:11.185Z,-1.50
2023-02-27T17:41:39.023Z,-1.40
2023-02-27T17:44:06.988Z,-1.50
2023-02-27T17:46:34.862Z,-1.50
2023-02-27T17:49:02.771Z,-1.60
2023-02-27T17:51:32.090Z,-1.60
2023-02-27T17:54:02.302Z,-1.50
2023-02-27T17:56:30.438Z,-1.50
2023-02-27T17:58:58.451Z,-1.60
2023-02-27T18:01:26.676Z,-1.60
2023-02-27T18:03:54.843Z,-1.60
2023-02-27T18:06:22.925Z,-1.60
2023-02-27T18:08:52.492Z,-1.80
2023-02-27T18:11:21.021Z,-1.80
2023-02-27T18:13:48.963Z,-1.60
2023-02-27T18:16:17.486Z,-1.80
2023-02-27T18:18:45.695Z,-1.60
2023-02-27T18:21:14.594Z,-1.60
2023-02-27T18:23:42.540Z,-1.60
2023-02-27T18:26:27.138Z,-1.70
2023-02-27T18:28:56.956Z,-1.60
2023-02-27T18:31:26.511Z,-1.60
2023-02-27T18:33:54.485Z,-1.80
2023-02-27T18:36:22.506Z,-1.60
2023-02-27T18:38:50.392Z,-1.60
2023-02-27T18:41:21.070Z,-1.60
2023-02-27T18:43:48.978Z,-1.60
2023-02-27T18:46:20.114Z,-1.70
2023-02-27T18:48:48.208Z,-1.70
2023-02-27T18:51:17.279Z,-1.80
2023-02-27T18:53:47.416Z,-1.80
2023-02-27T18:56:15.937Z,-1.80
2023-02-27T18:58:45.109Z,-1.80
2023-02-27T19:01:19.591Z,-1.80
2023-02-27T19:03:47.741Z,-1.70
2023-02-27T19:06:15.644Z,-1.70
2023-02-27T19:08:43.513Z,-1.70
2023-02-27T19:11:11.402Z,-1.80
2023-02-27T19:13:39.325Z,-2.00
2023-02-27T19:16:08.973Z,-1.80
2023-02-27T19:18:36.827Z,-1.80
2023-02-27T19:21:05.169Z,-1.70
2023-02-27T19:23:33.296Z,-1.70
2023-02-27T19:26:01.285Z,-1.80
2023-02-27T19:28:29.149Z,-1.80
2023-02-27T19:30:58.245Z,-1.80
2023-02-27T19:33:27.556Z,-1.80
2023-02-27T19:35:55.482Z,-1.90
2023-02-27T19:38:23.561Z,-1.80
2023-02-27T19:40:51.483Z,-1.90
2023-02-27T19:43:19.336Z,-1.90
2023-02-27T19:45:47.188Z,-1.80
2023-02-27T19:52:04.400Z,-1.80
2023-02-27T19:54:33.196Z,-1.80
2023-02-27T19:57:00.975Z,-1.80
2023-02-27T19:59:29.014Z,-1.90
2023-02-27T20:01:57.936Z,-1.90
2023-02-27T20:04:25.815Z,-1.90
2023-02-27T20:06:53.936Z,-1.90
2023-02-27T20:09:23.392Z,-1.90
2023-02-27T20:12:01.825Z,-1.90
2023-02-27T20:14:30.028Z,-1.90
2023-02-27T20:16:57.931Z,-1.90
2023-02-27T20:19:26.062Z,-2.00
2023-02-27T20:21:54.286Z,-2.00
2023-02-27T20:24:24.473Z,-1.90
2023-02-27T20:26:53.400Z,-1.90
2023-02-27T20:29:22.636Z,-1.80
2023-02-27T20:31:51.188Z,-1.90
2023-02-27T20:34:21.813Z,-1.90
2023-02-27T20:36:49.779Z,-2.00
2023-02-27T20:39:17.746Z,-2.00
2023-02-27T20:41:47.042Z,-2.00
2023-02-27T20:44:15.150Z,-2.00
2023-02-27T20:46:43.586Z,-2.10
2023-02-27T20:49:12.361Z,-2.10
2023-02-27T20:51:40.271Z,-2.00
2023-02-27T20:54:09.706Z,-2.10
2023-02-27T20:56:40.529Z,-2.10
2023-02-27T20:59:10.645Z,-2.20
2023-02-27T21:01:38.729Z,-2.20
2023-02-27T21:04:06.744Z,-2.20
2023-02-27T21:06:34.947Z,-2.10
2023-02-27T21:09:04.163Z,-2.10
2023-02-27T21:15:20.353Z,-2.10
2023-02-27T21:17:48.179Z,-2.10
2023-02-27T21:20:16.113Z,-2.10
2023-02-27T21:22:43.943Z,-2.20
2023-02-27T21:25:11.765Z,-2.20
2023-02-27T21:27:39.559Z,-2.10
2023-02-27T21:30:11.013Z,-2.20
2023-02-27T21:32:40.189Z,-2.10
2023-02-27T21:35:08.527Z,-2.30
2023-02-27T21:37:36.356Z,-2.30
2023-02-27T21:40:04.512Z,-2.20
2023-02-27T21:42:32.343Z,-2.20
2023-02-27T21:45:00.180Z,-2.20
2023-02-27T21:47:29.479Z,-2.30
2023-02-27T21:49:58.664Z,-2.40
2023-02-27T21:52:26.548Z,-2.50
2023-02-27T21:54:56.331Z,-2.60
2023-02-27T21:57:24.159Z,-2.70
2023-02-27T21:59:52.060Z,-2.60
2023-02-27T22:02:19.914Z,-2.60
2023-02-27T22:04:47.761Z,-2.70
2023-02-27T22:07:16.975Z,-2.70
2023-02-27T22:09:44.972Z,-2.70
2023-02-27T22:12:14.544Z,-2.70
2023-02-27T22:14:44.086Z,-2.70
2023-02-27T22:17:11.906Z,-2.80
2023-02-27T22:19:39.722Z,-2.80
2023-02-27T22:22:07.524Z,-2.80
2023-02-27T22:24:36.692Z,-2.80
2023-02-27T22:27:04.582Z,-2.80
2023-02-27T22:29:32.555Z,-2.70
2023-02-27T22:32:00.443Z,-2.90
2023-02-27T22:34:28.292Z,-2.80
2023-02-27T22:36:56.424Z,-2.90
2023-02-27T22:39:24.247Z,-3.10
2023-02-27T22:41:54.876Z,-3.20
2023-02-27T22:44:24.316Z,-3.10
2023-02-27T22:46:52.920Z,-3.10
2023-02-27T22:49:22.105Z,-3.30
2023-02-27T22:51:51.178Z,-3.40
2023-02-27T22:54:19.616Z,-3.30
2023-02-27T22:56:48.204Z,-3.30
2023-02-27T22:59:17.346Z,-3.30
2023-02-27T23:01:45.381Z,-3.40
2023-02-27T23:04:13.249Z,-3.40
2023-02-27T23:06:42.876Z,-3.20
2023-02-27T23:09:13.510Z,-3.30
2023-02-27T23:11:41.993Z,-3.40
2023-02-27T23:14:09.887Z,-3.30
2023-02-27T23:16:40.011Z,-3.40
2023-02-27T23:19:07.951Z,-3.50
2023-02-27T23:21:36.470Z,-3.60
2023-02-27T23:24:05.382Z,-3.40
2023-02-27T23:26:33.163Z,-3.60
2023-02-27T23:29:00.905Z,-3.50
2023-02-27T23:31:29.171Z,-3.40
2023-02-27T23:33:58.490Z,-3.30
2023-02-27T23:36:26.323Z,-3.50
2023-02-27T23:38:54.085Z,-3.30
2023-02-27T23:41:21.888Z,-3.30
2023-02-27T23:43:52.591Z,-3.50
2023-02-27T23:46:20.456Z,-3.70
2023-02-27T23:48:48.582Z,-3.80
2023-02-27T23:51:17.742Z,-3.40
2023-02-27T23:53:45.613Z,-3.50
2023-02-27T23:56:15.487Z,-3.60
2023-02-27T23:58:43.344Z,-3.40
